Flight Track Log - Related Links

Times and Time Zones

All times are in EDT time to prevent confusion due to time zone crossing. See the XOJ552 flight status page for this flight to view local times or setup timezone preferences in your user account.

Time Position Orientation Groundspeed Altitude Reporting Facility
EDT Latitude Longitude Course Direction KTS MPH feet Rate Location/Type
Mon 04:24:51 PM 43.6767 -70.5397 282° West 267 307 8,900  Level Boston Center
Mon 04:25:51 PM 43.6994 -70.6625 284° West 297 342 10,400 2,182 Climbing Boston Center
Mon 04:26:52 PM 43.7203 -70.7883 283° West 324 373 13,300 2,777 Climbing Boston Center
Mon 04:27:52 PM 43.6908 -70.9242 253° West 348 400 16,000 2,430 Climbing Boston Center
Mon 04:28:00 PM 43.6103 -71.2408 261° West  Level FlightAware Approximate
Mon 04:28:53 PM 43.6569 -71.0397 248° West 368 423 18,200  Level Boston Center
Mon 04:29:00 PM 43.5830 -71.4013 251° West  Level FlightAware Approximate
Mon 04:29:50 PM 43.6333 -71.1808 257° West 370 426 20,500  Level Boston Center
Mon 04:30:52 PM 43.6350 -71.3300 271° West 380 437 22,300 1,770 Climbing Boston Center
Mon 04:31:52 PM 43.6383 -71.4819 272° West 385 443 24,100 1,881 Climbing Boston Center
Mon 04:32:50 PM 43.6417 -71.6339 272° West 395 455 26,000 1,765 Climbing Boston Center
Mon 04:33:51 PM 43.6428 -71.7944 271° West 412 474 27,600 1,736 Climbing Boston Center
Mon 04:34:51 PM 43.6456 -71.9522 271° West 417 480 29,500 1,900 Climbing Boston Center
Mon 04:35:51 PM 43.6483 -72.1072 271° West 417 480 31,400 1,686 Climbing Boston Center
Mon 04:36:52 PM 43.6486 -72.2622 270° West 417 480 32,900 1,525 Climbing Boston Center
Mon 04:37:53 PM 43.6528 -72.4142 272° West 411 473 34,500 1,525 Climbing Boston Center
Mon 04:38:50 PM 43.6508 -72.5692 269° West 405 466 35,900 1,641 Climbing Boston Center
Mon 04:39:50 PM 43.6525 -72.7386 271° West 405 466 37,700 1,537 Climbing Boston Center
Mon 04:40:51 PM 43.6542 -72.8878 271° West 405 466 39,000 1,140 Climbing Boston Center
Mon 04:41:51 PM 43.6472 -73.0225 266° West 400 460 40,000 843 Climbing Boston Center
Mon 04:42:52 PM 43.6483 -73.1803 271° West 390 449 40,700 595 Climbing Boston Center
Mon 04:43:52 PM 43.6475 -73.3267 270° West 384 442 41,200 496 Climbing Boston Center
Mon 04:44:53 PM 43.6483 -73.4758 270° West 384 442 41,700 350 Climbing Boston Center
Mon 04:45:52 PM 43.6508 -73.6281 271° West 384 442 41,900 308 Climbing Boston Center
Mon 04:46:50 PM 43.6514 -73.7831 270° West 396 456 42,300 454 Climbing Boston Center
Mon 04:47:51 PM 43.6494 -73.9408 269° West 403 464 42,800 344 Climbing Boston Center
Mon 04:48:52 PM 43.6472 -74.0956 269° West 403 464 43,000 101 Climbing Boston Center
Mon 04:49:50 PM 43.6469 -74.2506 270° West 403 464 43,000  Level Boston Center
Mon 04:50:51 PM 43.6464 -74.4142 270° West 417 480 43,000  Level Boston Center
Mon 04:51:51 PM 43.6433 -74.5747 269° West 423 487 43,000  Level Boston Center
Mon 04:52:51 PM 43.6422 -74.7383 270° West 423 487 43,000  Level Boston Center
Mon 04:53:52 PM 43.6411 -74.9017 270° West 423 487 43,000  Level Boston Center
Mon 04:54:50 PM 43.6394 -75.0708 269° West 429 494 43,000 -51 Level Boston Center
Mon 04:55:50 PM 43.6375 -75.2344 269° West 429 494 42,900  Descending Boston Center
Mon 04:56:51 PM 43.6375 -75.4039 270° West 441 507 43,000 50 Climbing Boston Center
Mon 04:57:51 PM 43.6314 -75.5556 267° West 441 507 43,000  Level Boston Center
Mon 04:58:52 PM 43.6289 -75.7217 269° West 441 507 43,000  Level Boston Center
Mon 04:59:53 PM 43.6239 -75.8908 268° West 441 507 43,000  Level Boston Center
Mon 05:00:52 PM 43.6186 -76.0569 268° West 441 507 43,000  Level Boston Center
Mon 05:02:30 PM 43.6125 -76.3508 268° West 462 532 43,000  Level Cleveland Center
Mon 05:03:18 PM 43.5833 -76.4500 248° West 440 506 43,000  Level Toronto Center
Mon 05:04:18 PM 43.5833 -76.6167 270° West 430 495 43,000  Level Toronto Center
Mon 05:05:17 PM 43.5833 -76.7833 270° West 440 506 43,000 151 Level Toronto Center
Mon 05:06:17 PM 43.5833 -76.9333 270° West 420 483 43,300 446 Climbing Toronto Center
Mon 05:07:18 PM 43.5667 -77.1167 263° West 430 495 43,900 500 Climbing Toronto Center
Mon 05:08:17 PM 43.5667 -77.2667 270° West 420 483 44,300 455 Climbing Toronto Center
Mon 05:09:30 PM 43.5736 -77.4886 273° West 423 487 44,900 316 Climbing Cleveland Center
Mon 05:10:30 PM 43.5650 -77.6439 266° West 418 481 45,000 50 Climbing Cleveland Center
Mon 05:11:30 PM 43.5606 -77.8044 268° West 418 481 45,000  Level Cleveland Center
Mon 05:12:31 PM 43.5539 -77.9622 267° West 423 487 45,000  Level Cleveland Center
Mon 05:13:30 PM 43.5469 -78.1231 267° West 423 487 45,000  Level Cleveland Center
Mon 05:14:30 PM 43.5419 -78.2808 268° West 423 487 45,000  Level Cleveland Center
Mon 05:15:17 PM 43.5167 -78.3833 251° West 420 483 45,000  Level Toronto Center
Mon 05:16:17 PM 43.5167 -78.5500 270° West 420 483 45,000  Level Toronto Center
Mon 05:17:17 PM 43.5167 -78.7167 270° West 420 483 45,000  Level Toronto Center
Mon 05:18:17 PM 43.5000 -78.8500 260° West 420 483 45,000  Level Toronto Center
Mon 05:19:17 PM 43.5000 -79.0333 270° West 410 472 45,000  Level Toronto Center
Mon 05:20:17 PM 43.4833 -79.1667 260° West 400 460 45,000  Level Toronto Center
Mon 05:21:17 PM 43.4833 -79.3167 270° West 400 460 45,000  Level Toronto Center
Mon 05:22:17 PM 43.4667 -79.4667 261° West 400 460 45,000  Level Toronto Center
Mon 05:23:17 PM 43.4500 -79.6333 262° West 410 472 45,000  Level Toronto Center
Mon 05:24:17 PM 43.4500 -79.8000 270° West 410 472 45,000  Level Toronto Center
Mon 05:25:17 PM 43.4500 -79.9500 270° West 410 472 45,000  Level Toronto Center
Mon 05:26:17 PM 43.4333 -80.1000 261° West 410 472 45,000  Level Toronto Center
Mon 05:27:17 PM 43.4333 -80.2500 270° West 410 472 45,000  Level Toronto Center
Mon 05:28:18 PM 43.4167 -80.4167 262° West 410 472 45,000  Level Toronto Center
Mon 05:29:18 PM 43.4000 -80.5667 261° West 410 472 45,000  Level Toronto Center
Mon 05:30:17 PM 43.4000 -80.7333 270° West 420 483 45,000  Level Toronto Center
Mon 05:31:17 PM 43.3667 -80.9000 255° West 420 483 45,000  Level Toronto Center
Mon 05:32:17 PM 43.3833 -81.0500 279° West 410 472 45,000  Level Toronto Center
Mon 05:33:17 PM 43.4000 -81.2167 278° West 420 483 45,000  Level Toronto Center
Mon 05:34:17 PM 43.4167 -81.3833 278° West 420 483 45,000  Level Toronto Center
Mon 05:35:17 PM 43.4333 -81.5333 279° West 420 483 45,000  Level Toronto Center
Mon 05:36:17 PM 43.4333 -81.7000 270° West 430 495 45,000  Level Toronto Center
Mon 05:37:17 PM 43.4167 -81.8667 262° West 430 495 45,000  Level Toronto Center
Mon 05:38:17 PM 43.3833 -82.0167 253° West 430 495 45,000  Level Toronto Center
Mon 05:39:18 PM 43.3833 -82.1833 270° West 430 495 45,000  Level Toronto Center
Mon 05:40:17 PM 43.3667 -82.3333 261° West 430 495 45,000  Level Toronto Center
Mon 05:41:17 PM 43.3667 -82.5000 270° West 430 495 45,000  Level Toronto Center
Mon 05:42:17 PM 43.3333 -82.6667 255° West 430 495 45,000  Level Toronto Center
Mon 05:43:18 PM 43.3425 -82.8439 274° West 427 491 45,000  Level Cleveland Center
Mon 05:44:18 PM 43.3269 -82.9975 262° West 427 491 45,000  Level Cleveland Center
Mon 05:45:18 PM 43.3131 -83.1597 263° West 427 491 45,000  Level Cleveland Center
Mon 05:46:18 PM 43.2989 -83.3244 263° West 427 491 45,000  Level Cleveland Center
Mon 05:47:18 PM 43.2844 -83.4808 263° West 427 491 45,000  Level Cleveland Center
Mon 05:48:18 PM 43.2681 -83.6397 262° West 427 491 45,000  Level Cleveland Center
Mon 05:49:18 PM 43.2531 -83.8014 263° West 427 491 45,000  Level Cleveland Center
Mon 05:50:18 PM 43.2381 -83.9661 263° West 427 491 45,000  Level Cleveland Center
Mon 05:51:18 PM 43.2189 -84.1217 260° West 427 491 45,000  Level Cleveland Center
Mon 05:52:18 PM 43.2086 -84.2492 264° West 427 491 45,000  Level Cleveland Center
Mon 05:53:18 PM 43.1919 -84.4419 263° West 428 493 45,000  Level Cleveland Center
Mon 05:54:12 PM 43.1781 -84.5678 261° West 425 489 45,000  Level Chicago Center
Mon 05:55:14 PM 43.1619 -84.7272 262° West 425 489 45,000  Level Chicago Center
Mon 05:56:16 PM 43.1453 -84.8839 262° West 419 482 45,000  Level Chicago Center
Mon 05:57:18 PM 43.1244 -85.0719 261° West 418 481 45,000  Level Chicago Center
Mon 05:58:21 PM 43.1083 -85.2264 262° West 414 476 45,000  Level Chicago Center
Mon 05:59:23 PM 43.0917 -85.3828 262° West 415 478 45,000  Level Chicago Center
Mon 06:00:25 PM 43.0747 -85.5375 262° West 415 478 45,000  Level Chicago Center
Mon 06:01:27 PM 43.0572 -85.6922 261° West 414 476 45,000  Level Chicago Center
Mon 06:02:29 PM 43.0378 -85.8739 262° West 419 482 45,000  Level Chicago Center
Mon 06:03:31 PM 43.0214 -86.0275 262° West 419 482 45,000  Level Chicago Center
Mon 06:04:33 PM 43.0006 -86.1847 260° West 452 520 45,000  Level Chicago Center
Mon 06:05:35 PM 42.9794 -86.3678 261° West 409 471 45,000  Level Chicago Center
Mon 06:06:37 PM 42.9600 -86.5231 260° West 413 475 45,000  Level Chicago Center
Mon 06:07:39 PM 42.9425 -86.6792 261° West 424 488 45,000  Level Chicago Center
Mon 06:08:41 PM 42.9231 -86.8294 260° West 407 468 45,000  Level Chicago Center
Mon 06:09:43 PM 42.9042 -86.9861 261° West 418 481 45,000  Level Chicago Center
Mon 06:10:46 PM 42.8867 -87.1444 261° West 425 489 45,000  Level Chicago Center
Mon 06:11:48 PM 42.8603 -87.3264 259° West 417 480 45,000  Level Chicago Center
Mon 06:12:50 PM 42.8411 -87.4775 260° West 413 475 45,000  Level Chicago Center
Mon 06:13:52 PM 42.8206 -87.6369 260° West 420 483 45,000  Level Chicago Center
Mon 06:14:54 PM 42.7994 -87.7972 260° West 428 493 45,000  Level Chicago Center
Mon 06:15:56 PM 42.7778 -87.9589 260° West 429 494 45,000  Level Chicago Center
Mon 06:16:58 PM 42.7525 -88.1453 260° West 427 491 45,000  Level Chicago Center
Mon 06:18:00 PM 42.7308 -88.3053 260° West 427 491 45,000  Level Chicago Center
Mon 06:19:02 PM 42.7092 -88.4642 260° West 426 490 45,000  Level Chicago Center
Mon 06:20:04 PM 42.6872 -88.6239 259° West 427 491 45,000  Level Chicago Center
Mon 06:21:06 PM 42.6636 -88.7836 259° West 429 494 45,000  Level Chicago Center
Mon 06:22:08 PM 42.6417 -88.9439 260° West 431 496 45,000  Level Chicago Center
Mon 06:23:11 PM 42.6153 -89.1306 259° West 430 495 45,000  Level Chicago Center
Mon 06:24:13 PM 42.5922 -89.2883 259° West 427 491 45,000  Level Chicago Center
Mon 06:25:15 PM 42.5694 -89.4497 259° West 431 496 45,000  Level Chicago Center
Mon 06:26:17 PM 42.5450 -89.6092 258° West 431 496 45,000  Level Chicago Center
Mon 06:27:19 PM 42.5222 -89.7703 259° West 433 498 45,000  Level Chicago Center
Mon 06:28:21 PM 42.4964 -89.9281 258° West 435 501 45,000  Level Chicago Center
Mon 06:29:23 PM 42.4672 -90.1194 258° West 437 503 45,000  Level Chicago Center
Mon 06:30:25 PM 42.4439 -90.2797 259° West 437 503 45,000  Level Chicago Center
Mon 06:31:27 PM 42.4183 -90.4400 258° West 438 504 45,000  Level Chicago Center
Mon 06:32:30 PM 42.3922 -90.6006 258° West 440 506 45,000  Level Chicago Center
Mon 06:33:32 PM 42.3678 -90.7608 258° West 440 506 45,000  Level Chicago Center
Mon 06:34:34 PM 42.3367 -90.9525 258° West 438 504 45,000  Level Chicago Center
Mon 06:35:36 PM 42.3100 -91.1136 257° West 442 509 45,000  Level Chicago Center
Mon 06:36:38 PM 42.2839 -91.2733 258° West 439 505 45,000  Level Chicago Center
Mon 06:37:40 PM 42.2583 -91.4344 258° West 439 505 45,000  Level Chicago Center
Mon 06:38:42 PM 42.2303 -91.5958 257° West 441 507 45,000  Level Chicago Center
Mon 06:39:44 PM 42.2033 -91.7583 257° West 444 511 45,000  Level Chicago Center
Mon 06:40:46 PM 42.1708 -91.9506 257° West 441 507 45,000  Level Chicago Center
Mon 06:41:48 PM 42.1431 -92.1111 257° West 441 507 45,000  Level Chicago Center
Mon 06:42:50 PM 42.1158 -92.2719 257° West 443 510 45,000  Level Chicago Center
Mon 06:43:52 PM 42.0875 -92.4319 257° West 444 511 45,000  Level Chicago Center
Mon 06:44:54 PM 42.0592 -92.5925 257° West 444 511 45,000  Level Chicago Center
Mon 06:45:57 PM 42.0250 -92.7867 257° West 446 513 45,000  Level Chicago Center
Mon 06:46:36 PM 42.0075 -92.8831 256° West 446 513 45,000  Level Minneapolis Center
Mon 06:47:38 PM 41.9781 -93.0436 256° West 446 513 45,000  Level Minneapolis Center
Mon 06:48:40 PM 41.9500 -93.2025 257° West 440 506 45,000  Level Minneapolis Center
Mon 06:49:42 PM 41.9164 -93.3800 256° West 451 519 45,000  Level Minneapolis Center
Mon 06:50:44 PM 41.8867 -93.5375 256° West 446 513 45,000  Level Minneapolis Center
Mon 06:51:46 PM 41.8586 -93.6969 257° West 444 511 45,000  Level Minneapolis Center
Mon 06:52:48 PM 41.8225 -93.8819 255° West 453 521 45,000  Level Minneapolis Center
Mon 06:53:50 PM 41.7919 -94.0444 256° West 451 519 45,000  Level Minneapolis Center
Mon 06:54:52 PM 41.7606 -94.2069 256° West 452 520 45,000  Level Minneapolis Center
Mon 06:55:55 PM 41.7217 -94.4011 255° West 451 519 45,000  Level Minneapolis Center
Mon 06:56:57 PM 41.6914 -94.5636 256° West 450 518 45,000  Level Minneapolis Center
Mon 06:57:59 PM 41.6569 -94.7250 254° West 452 520 45,000  Level Minneapolis Center
Mon 06:59:01 PM 41.6256 -94.8872 256° West 452 520 45,000  Level Minneapolis Center
Mon 07:00:03 PM 41.5947 -95.0478 256° West 448 516 45,000  Level Minneapolis Center
Mon 07:01:05 PM 41.5625 -95.2133 255° West 458 527 45,000  Level Minneapolis Center
Mon 07:02:07 PM 41.5208 -95.4086 254° West 457 526 45,000  Level Minneapolis Center
Mon 07:03:09 PM 41.4872 -95.5706 255° West 455 524 45,000  Level Minneapolis Center
Mon 07:04:11 PM 41.4544 -95.7303 255° West 461 531 45,000 -290 Level Minneapolis Center
Mon 07:05:13 PM 41.4211 -95.8947 255° West 460 529 44,400 -774 Descending Minneapolis Center
Mon 07:06:15 PM 41.3867 -96.0583 254° West 461 531 43,400 -1,016 Descending Minneapolis Center
Mon 07:07:17 PM 41.3458 -96.2553 255° West 461 531 42,300 -1,016 Descending Minneapolis Center
Mon 07:08:19 PM 41.3114 -96.4094 253° West 463 533 41,300 -968 Descending Minneapolis Center
Mon 07:09:21 PM 41.2756 -96.5750 254° West 466 536 40,300 -629 Descending Minneapolis Center
Mon 07:10:23 PM 41.2381 -96.7439 254° West 474 545 40,000 -145 Descending Minneapolis Center
Mon 07:11:25 PM 41.2006 -96.9117 254° West 476 548 40,000  Level Minneapolis Center
Mon 07:12:27 PM 41.1564 -97.1142 254° West 477 549 40,000  Level Minneapolis Center
Mon 07:13:29 PM 41.1181 -97.2825 253° West 477 549 40,000  Level Minneapolis Center
Mon 07:14:31 PM 41.0778 -97.4628 254° West 477 549 40,000  Level Minneapolis Center
Mon 07:15:33 PM 41.0400 -97.6306 253° West 476 548 40,000  Level Minneapolis Center
Mon 07:16:35 PM 41.0014 -97.7981 253° West 475 547 40,000  Level Minneapolis Center
Mon 07:17:37 PM 40.9631 -97.9672 253° West 477 549 40,000  Level Minneapolis Center
Mon 07:18:39 PM 40.9236 -98.1350 253° West 477 549 40,000  Level Minneapolis Center
Mon 07:19:53 PM 40.8767 -98.3367 253° West 476 548 40,000  Level Minneapolis Center
Mon 07:20:55 PM 40.8325 -98.5211 252° West 476 548 40,000  Level Minneapolis Center
Mon 07:21:57 PM 40.7928 -98.6878 253° West 476 548 40,000  Level Minneapolis Center
Mon 07:22:59 PM 40.7531 -98.8544 253° West 477 549 40,000  Level Minneapolis Center
Mon 07:24:01 PM 40.7078 -99.0433 253° West 475 547 40,000  Level Minneapolis Center
Mon 07:24:42 PM 40.6847 -99.1425 253° West 474 545 40,000  Level Denver Center
Mon 07:25:44 PM 40.6447 -99.3083 252° West 473 544 40,000  Level Denver Center
Mon 07:26:46 PM 40.6047 -99.4736 252° West 473 544 40,000  Level Denver Center
Mon 07:27:48 PM 40.5547 -99.6706 252° West 471 542 40,000  Level Denver Center
Mon 07:28:50 PM 40.5144 -99.8353 252° West 472 543 40,000  Level Denver Center
Mon 07:29:52 PM 40.4725 -100.0014 252° West 471 542 40,000  Level Denver Center
Mon 07:30:54 PM 40.4331 -100.1578 252° West 470 541 40,000  Level Denver Center
Mon 07:31:56 PM 40.3853 -100.3414 251° West 474 545 40,000  Level Denver Center
Mon 07:32:58 PM 40.3450 -100.4983 251° West 473 544 40,000  Level Denver Center
Mon 07:33:59 PM 40.3036 -100.6547 251° West 472 543 40,000  Level Denver Center
Mon 07:35:01 PM 40.2567 -100.8375 251° West 472 543 40,000  Level Denver Center
Mon 07:36:03 PM 40.2158 -100.9933 251° West 472 543 40,000  Level Denver Center
Mon 07:37:05 PM 40.1689 -101.1767 252° West 473 544 40,000  Level Denver Center
Mon 07:38:07 PM 40.1281 -101.3311 251° West 470 541 40,000  Level Denver Center
Mon 07:39:09 PM 40.0792 -101.5125 251° West 473 544 40,000  Level Denver Center
Mon 07:40:11 PM 40.0375 -101.6672 251° West 472 543 40,000  Level Denver Center
Mon 07:41:13 PM 39.9892 -101.8481 251° West 473 544 40,000  Level Denver Center
Mon 07:42:15 PM 39.9469 -102.0022 250° West 471 542 40,000  Level Denver Center
Mon 07:43:17 PM 39.9053 -102.1567 251° West 473 544 40,000  Level Denver Center
Mon 07:44:19 PM 39.8553 -102.3361 250° West 472 543 40,000  Level Denver Center
Mon 07:45:21 PM 39.8125 -102.4911 250° West 474 545 40,000  Level Denver Center
Mon 07:46:23 PM 39.7622 -102.6692 250° West 472 543 40,000  Level Denver Center
Mon 07:47:25 PM 39.7200 -102.8208 250° West 471 542 40,000  Level Denver Center
Mon 07:48:27 PM 39.6744 -102.9797 250° West 470 541 40,000  Level Denver Center
Mon 07:49:29 PM 39.6194 -103.1719 250° West 475 547 40,000  Level Denver Center
Mon 07:50:31 PM 39.5750 -103.3311 250° West 472 543 40,000  Level Denver Center
Mon 07:51:34 PM 39.5289 -103.4908 250° West 471 542 40,000  Level Denver Center
Mon 07:52:36 PM 39.4819 -103.6497 249° West 472 543 40,000  Level Denver Center
Mon 07:53:38 PM 39.4361 -103.8094 250° West 475 547 40,000  Level Denver Center
Mon 07:54:40 PM 39.3903 -103.9667 249° West 468 539 40,000  Level Denver Center
Mon 07:55:42 PM 39.3425 -104.1253 249° West 473 544 40,000  Level Denver Center
Mon 07:56:44 PM 39.2858 -104.3150 249° West 468 539 40,000  Level Denver Center
Mon 07:57:46 PM 39.2378 -104.4744 249° West 473 544 40,000  Level Denver Center
Mon 07:58:48 PM 39.1900 -104.6319 249° West 468 539 40,000  Level Denver Center
Mon 07:59:50 PM 39.1422 -104.7922 249° West 474 545 40,000  Level Denver Center
Mon 08:00:52 PM 39.0944 -104.9492 249° West 469 540 40,000  Level Denver Center
Mon 08:01:54 PM 39.0464 -105.1053 248° West 469 540 40,000  Level Denver Center
Mon 08:02:56 PM 38.9983 -105.2617 248° West 469 540 40,000  Level Denver Center
Mon 08:03:58 PM 38.9406 -105.4486 248° West 469 540 40,000  Level Denver Center
Mon 08:05:00 PM 38.8925 -105.6025 248° West 467 537 40,000  Level Denver Center
Mon 08:06:02 PM 38.8436 -105.7569 248° West 469 540 40,000  Level Denver Center
Mon 08:07:04 PM 38.7953 -105.9122 248° West 468 539 40,000  Level Denver Center
Mon 08:08:07 PM 38.7436 -106.0658 247° West 470 541 40,000  Level Denver Center
Mon 08:09:08 PM 38.6603 -106.1994 231° Southwest 459 528 40,000  Level Denver Center
Mon 08:10:10 PM 38.5767 -106.3272 230° Southwest 464 534 40,000  Level Denver Center
Mon 08:11:12 PM 38.4936 -106.4544 230° Southwest 463 533 40,000  Level Denver Center
Mon 08:12:14 PM 38.4100 -106.5794 230° Southwest 461 531 40,000  Level Denver Center
Mon 08:13:16 PM 38.3189 -106.7169 230° Southwest 461 531 40,000  Level Denver Center
Mon 08:14:19 PM 38.2519 -106.8758 242° Southwest 462 532 40,000  Level Denver Center
Mon 08:15:21 PM 38.2036 -107.0311 248° West 468 539 40,000  Level Denver Center
Mon 08:16:23 PM 38.1525 -107.1969 249° West 468 539 40,000  Level Denver Center
Mon 08:17:25 PM 38.1075 -107.3417 248° West 462 532 40,000  Level Denver Center
Mon 08:18:27 PM 38.0594 -107.4981 249° West 464 534 40,000  Level Denver Center
Mon 08:19:29 PM 38.0058 -107.6653 248° West 461 531 40,000  Level Denver Center
Mon 08:20:31 PM 37.9606 -107.8128 249° West 467 537 40,000  Level Denver Center
Mon 08:21:33 PM 37.9067 -107.9817 248° West 465 535 40,000  Level Denver Center
Mon 08:22:35 PM 37.8600 -108.1286 248° West 469 540 40,000  Level Denver Center
Mon 08:23:37 PM 37.8056 -108.2961 248° West 465 535 40,000  Level Denver Center
Mon 08:24:39 PM 37.7600 -108.4422 249° West 467 537 40,000  Level Denver Center
Mon 08:25:41 PM 37.7061 -108.6072 248° West 460 529 40,000  Level Denver Center
Mon 08:26:43 PM 37.6603 -108.7511 248° West 457 526 40,000  Level Denver Center
Mon 08:27:45 PM 37.6142 -108.8942 248° West 460 529 40,000  Level Denver Center
Mon 08:28:46 PM 37.5594 -109.0547 247° West 454 522 40,000  Level Denver Center
Mon 08:29:48 PM 37.5125 -109.1975 248° West 461 531 40,000  Level Denver Center
Mon 08:30:50 PM 37.4581 -109.3600 247° West 454 522 40,000  Level Denver Center
Mon 08:31:52 PM 37.4114 -109.5006 247° West 456 525 40,000  Level Denver Center
Mon 08:32:54 PM 37.3572 -109.6628 247° West 454 522 40,000  Level Denver Center
Mon 08:33:56 PM 37.3097 -109.8031 247° West 455 524 40,000  Level Denver Center
Mon 08:34:58 PM 37.2550 -109.9658 247° West 456 525 40,000  Level Denver Center
Mon 08:36:00 PM 37.2072 -110.1061 247° West 458 527 40,000  Level Denver Center
Mon 08:37:02 PM 37.1583 -110.2428 246° West 455 524 40,000  Level Denver Center
Mon 08:38:03 PM 37.0981 -110.4172 247° West 456 525 40,000  Level Denver Center
Mon 08:39:05 PM 37.0481 -110.5625 247° West 455 524 40,000  Level Denver Center
Mon 08:40:07 PM 36.9986 -110.7089 247° West 456 525 40,000  Level Denver Center
Mon 08:41:09 PM 36.9506 -110.8511 247° West 449 517 40,000  Level Denver Center
Mon 08:42:11 PM 36.9006 -110.9936 246° West 447 514 40,000  Level Denver Center
Mon 08:43:13 PM 36.8486 -111.1378 246° West 451 519 40,000  Level Denver Center
Mon 08:44:14 PM 36.7972 -111.2833 246° West 455 524 40,000  Level Denver Center
Mon 08:45:16 PM 36.7344 -111.4561 246° West 456 525 40,000  Level Denver Center
Mon 08:46:18 PM 36.6811 -111.6000 245° Southwest 455 524 40,000  Level Denver Center
Mon 08:47:20 PM 36.6308 -111.7425 246° West 452 520 40,000  Level Denver Center
Mon 08:48:28 PM 36.5800 -111.8853 246° West 451 519 40,000  Level Los Angeles Center
Mon 08:49:30 PM 36.5181 -112.0544 246° West 448 516 40,000  Level Los Angeles Center
Mon 08:50:31 PM 36.4675 -112.1936 246° West 444 511 40,000  Level Los Angeles Center
Mon 08:51:33 PM 36.4158 -112.3344 246° West 446 513 40,000  Level Los Angeles Center
Mon 08:52:35 PM 36.3639 -112.4747 245° Southwest 447 514 40,000  Level Los Angeles Center
Mon 08:53:37 PM 36.3136 -112.6131 246° West 442 509 40,000  Level Los Angeles Center
Mon 08:54:38 PM 36.2631 -112.7517 246° West 441 507 40,000  Level Los Angeles Center
Mon 08:55:40 PM 36.2100 -112.8917 245° Southwest 445 512 40,000  Level Los Angeles Center
Mon 08:56:42 PM 36.1475 -113.0589 245° Southwest 447 514 40,000  Level Los Angeles Center
Mon 08:57:44 PM 36.0958 -113.1975 245° Southwest 445 512 40,000  Level Los Angeles Center
Mon 08:58:45 PM 36.0422 -113.3331 244° Southwest 443 510 40,000  Level Los Angeles Center
Mon 08:59:47 PM 35.9861 -113.4708 243° Southwest 445 512 40,000  Level Los Angeles Center
Mon 09:00:49 PM 35.9375 -113.6094 247° West 446 513 40,000  Level Los Angeles Center
Mon 09:01:51 PM 35.8853 -113.7475 245° Southwest 445 512 40,000  Level Los Angeles Center
Mon 09:02:53 PM 35.8314 -113.8858 244° Southwest 446 513 40,000  Level Los Angeles Center
Mon 09:03:54 PM 35.7772 -114.0228 244° Southwest 445 512 40,000  Level Los Angeles Center
Mon 09:04:56 PM 35.7250 -114.1597 245° Southwest 442 509 40,000  Level Los Angeles Center
Mon 09:05:57 PM 35.6717 -114.2950 244° Southwest 441 507 40,000  Level Los Angeles Center
Mon 09:07:00 PM 35.6083 -114.4572 244° Southwest 437 503 40,000 -194 Level Los Angeles Center
Mon 09:08:01 PM 35.5553 -114.5936 244° Southwest 440 506 39,600 -1,366 Descending Los Angeles Center
Mon 09:09:03 PM 35.5019 -114.7300 244° Southwest 443 510 37,200 -2,274 Descending Los Angeles Center
Mon 09:10:05 PM 35.4483 -114.8622 244° Southwest 434 499 34,900 -1,561 Descending Los Angeles Center
Mon 09:11:06 PM 35.3967 -114.9961 245° Southwest 433 498 34,000 -439 Descending Los Angeles Center
Mon 09:12:08 PM 35.3433 -115.1272 244° Southwest 430 495 34,000  Level Los Angeles Center
Mon 09:13:10 PM 35.2764 -115.2933 244° Southwest 444 511 34,000  Level Los Angeles Center
Mon 09:14:12 PM 35.2189 -115.4342 243° Southwest 458 527 34,000  Level Los Angeles Center
Mon 09:15:13 PM 35.1683 -115.5606 244° Southwest 466 536 34,000  Level Los Angeles Center
Mon 09:16:15 PM 35.1111 -115.7025 244° Southwest 465 535 34,000  Level Los Angeles Center
Mon 09:17:17 PM 35.0539 -115.8436 244° Southwest 464 534 34,000 -976 Level Los Angeles Center
Mon 09:18:18 PM 34.9858 -116.0075 243° Southwest 453 521 32,000 -2,098 Descending Los Angeles Center
Mon 09:19:20 PM 34.9308 -116.1397 243° Southwest 440 506 29,700 -2,226 Descending Los Angeles Center
Mon 09:20:22 PM 34.8778 -116.2717 244° Southwest 430 495 27,400 -2,244 Descending Los Angeles Center
Mon 09:21:23 PM 34.8225 -116.3978 242° Southwest 429 494 25,100 -1,902 Descending Los Angeles Center
Mon 09:22:25 PM 34.7922 -116.5325 255° West 424 488 23,500 -1,210 Descending Los Angeles Center
Mon 09:23:27 PM 34.7778 -116.6636 262° West 398 458 22,600 -927 Descending Los Angeles Center
Mon 09:24:28 PM 34.7656 -116.7908 263° West 382 440 21,600 -927 Descending Los Angeles Center
Mon 09:25:30 PM 34.7511 -116.9239 263° West 391 450 20,700 -1,610 Descending Los Angeles Center
Mon 09:26:31 PM 34.7342 -117.0858 263° West 400 460 18,300 -2,146 Descending Los Angeles Center
Mon 09:27:33 PM 34.7206 -117.2200 263° West 400 460 16,300 -1,935 Descending Los Angeles Center
Mon 09:28:35 PM 34.7083 -117.3517 264° West 391 450 14,300 -1,561 Descending Los Angeles Center
Mon 09:29:36 PM 34.6936 -117.4747 262° West 373 429 13,100 -585 Descending Los Angeles Center
Mon 09:30:38 PM 34.6794 -117.5864 261° West 337 388 13,100  Level Los Angeles Center
Mon 09:31:39 PM 34.6600 -117.7142 260° West 377 434 13,100  Level Los Angeles Center
Mon 09:32:41 PM 34.6419 -117.8447 260° West 392 451 13,100  Level Los Angeles Center
Mon 09:33:42 PM 34.6231 -117.9747 260° West 391 450 13,100 -341 Level Los Angeles Center
Mon 09:34:44 PM 34.6058 -118.0958 260° West 365 420 12,400 -1,258 Descending Los Angeles Center
Mon 09:35:46 PM 34.5892 -118.2089 260° West 316 364 10,500 -1,659 Descending Los Angeles Center
Mon 09:36:47 PM 34.5747 -118.3025 259° West 290 334 9,000 -1,171 Descending Los Angeles Center
Mon 09:37:49 PM 34.5589 -118.3939 258° West 280 322 8,100 -878 Descending Los Angeles Center
Mon 09:38:50 PM 34.4928 -118.4794 227° Southwest 300 345 7,200 -927 Descending Los Angeles Center
Mon 09:39:52 PM 34.4322 -118.5456 222° Southwest 294 338 6,200 -780 Descending Los Angeles Center
Mon 09:40:53 PM 34.3819 -118.6006 222° Southwest 253 291 5,600 -585 Descending Los Angeles Center
Mon 09:41:55 PM 34.3192 -118.6439 210° Southwest 259 298 5,000 -774 Descending Los Angeles Center
Mon 09:42:57 PM 34.2553 -118.6356 174° South 259 298 4,000 -976 Descending Los Angeles Center
Mon 09:43:58 PM 34.2192 -118.5742 125° Southeast 244 281 3,000 -435 Descending Los Angeles Center
Mon 09:45:01 PM 34.2000 -118.5000 107° East 164 189 3,100 -341 Climbing Southern California TRACON
Mon 09:46:01 PM 34.2000 -118.4500 90° East 142 163 2,300 -789 Descending Southern California TRACON
Mon 09:46:55 PM 34.2000 -118.4167 90° East 132 152 1,600 -778 Descending Southern California TRACON
Mon 09:49:00 PM 34.2000 -118.3500 90° East  Level FlightAware Approximate
Mon 09:56:00 PM 34.2007 -118.3587 90° East  Level Estimated

Login

Don't have an account? Register now (free) for customized features, flight alerts, and more!